Terminal Aerodrome Forecast
Issued by NWS

Home | Current Version | Previous Version | Text Only | Print | Product List | Glossary On
Versions: 1 2 3 4 5 6 7 8 9 10 11 12
000
FTUS45 KRIW 201100
TAFBPI
TAF
KBPI 201120Z 2012/2112 VRB04KT P6SM VCSH SCT045 BKN060
     FM202300 VRB04KT P6SM VCSH OVC040
     FM210700 VRB06KT 5SM -SN OVC035=

USA.gov is the U.S. government's official web portal to all federal, state and local government web resources and services.